sensor_id;sensor_type;location;lat;lon;timestamp;P1;durP1;ratioP1;P2;durP2;ratioP2
35518;SDS011;21627;48.216;16.482;2024-01-30T00:02:18;28.27;;;13.60;;
35518;SDS011;21627;48.216;16.482;2024-01-30T00:04:46;25.57;;;12.80;;
35518;SDS011;21627;48.216;16.482;2024-01-30T00:07:13;30.87;;;13.27;;
35518;SDS011;21627;48.216;16.482;2024-01-30T00:09:40;28.70;;;13.07;;
35518;SDS011;21627;48.216;16.482;2024-01-30T00:12:07;30.20;;;13.40;;
35518;SDS011;21627;48.216;16.482;2024-01-30T00:14:34;25.60;;;13.13;;
35518;SDS011;21627;48.216;16.482;2024-01-30T00:17:01;30.73;;;13.73;;
35518;SDS011;21627;48.216;16.482;2024-01-30T00:19:29;26.60;;;14.17;;
35518;SDS011;21627;48.216;16.482;2024-01-30T00:21:56;23.43;;;12.40;;
35518;SDS011;21627;48.216;16.482;2024-01-30T00:24:23;28.77;;;12.90;;
35518;SDS011;21627;48.216;16.482;2024-01-30T00:26:50;28.13;;;14.03;;
35518;SDS011;21627;48.216;16.482;2024-01-30T00:29:18;24.67;;;13.37;;
35518;SDS011;21627;48.216;16.482;2024-01-30T00:31:46;26.23;;;13.27;;
35518;SDS011;21627;48.216;16.482;2024-01-30T00:34:13;30.73;;;14.03;;
35518;SDS011;21627;48.216;16.482;2024-01-30T00:36:40;25.57;;;13.87;;
35518;SDS011;21627;48.216;16.482;2024-01-30T00:39:07;29.27;;;13.60;;
35518;SDS011;21627;48.216;16.482;2024-01-30T00:41:35;28.47;;;12.90;;
35518;SDS011;21627;48.216;16.482;2024-01-30T00:44:03;22.30;;;13.13;;
35518;SDS011;21627;48.216;16.482;2024-01-30T00:46:30;28.40;;;13.17;;
35518;SDS011;21627;48.216;16.482;2024-01-30T00:48:57;36.97;;;14.43;;
35518;SDS011;21627;48.216;16.482;2024-01-30T00:51:24;26.23;;;12.83;;
35518;SDS011;21627;48.216;16.482;2024-01-30T00:53:51;23.07;;;12.97;;
35518;SDS011;21627;48.216;16.482;2024-01-30T00:56:19;32.17;;;13.27;;
35518;SDS011;21627;48.216;16.482;2024-01-30T00:58:46;27.43;;;12.97;;
35518;SDS011;21627;48.216;16.482;2024-01-30T01:01:13;23.23;;;13.13;;
35518;SDS011;21627;48.216;16.482;2024-01-30T01:03:41;27.50;;;14.07;;
35518;SDS011;21627;48.216;16.482;2024-01-30T01:06:10;23.27;;;12.77;;
35518;SDS011;21627;48.216;16.482;2024-01-30T01:08:37;26.50;;;13.93;;
35518;SDS011;21627;48.216;16.482;2024-01-30T01:11:05;32.00;;;13.87;;
35518;SDS011;21627;48.216;16.482;2024-01-30T01:13:32;29.23;;;14.60;;
35518;SDS011;21627;48.216;16.482;2024-01-30T01:15:59;28.93;;;13.73;;
35518;SDS011;21627;48.216;16.482;2024-01-30T01:18:26;34.80;;;14.13;;
35518;SDS011;21627;48.216;16.482;2024-01-30T01:20:53;31.30;;;13.93;;
35518;SDS011;21627;48.216;16.482;2024-01-30T01:23:20;35.97;;;13.47;;
35518;SDS011;21627;48.216;16.482;2024-01-30T01:25:48;27.47;;;14.53;;
35518;SDS011;21627;48.216;16.482;2024-01-30T01:28:15;33.47;;;13.40;;
35518;SDS011;21627;48.216;16.482;2024-01-30T01:30:42;30.17;;;14.97;;
35518;SDS011;21627;48.216;16.482;2024-01-30T01:33:09;29.03;;;14.73;;
35518;SDS011;21627;48.216;16.482;2024-01-30T01:35:36;32.43;;;14.50;;
35518;SDS011;21627;48.216;16.482;2024-01-30T01:38:04;30.03;;;13.43;;
35518;SDS011;21627;48.216;16.482;2024-01-30T01:40:31;32.00;;;15.13;;
35518;SDS011;21627;48.216;16.482;2024-01-30T01:42:58;35.47;;;14.40;;
35518;SDS011;21627;48.216;16.482;2024-01-30T01:45:25;30.87;;;13.97;;
35518;SDS011;21627;48.216;16.482;2024-01-30T01:47:52;34.10;;;14.63;;
35518;SDS011;21627;48.216;16.482;2024-01-30T01:50:20;25.20;;;14.10;;
35518;SDS011;21627;48.216;16.482;2024-01-30T01:52:49;31.17;;;14.13;;
35518;SDS011;21627;48.216;16.482;2024-01-30T01:55:18;23.77;;;13.23;;
35518;SDS011;21627;48.216;16.482;2024-01-30T01:57:48;29.77;;;14.03;;
35518;SDS011;21627;48.216;16.482;2024-01-30T02:00:16;29.43;;;14.17;;
35518;SDS011;21627;48.216;16.482;2024-01-30T02:02:46;29.83;;;14.13;;
35518;SDS011;21627;48.216;16.482;2024-01-30T02:05:14;29.70;;;13.03;;
35518;SDS011;21627;48.216;16.482;2024-01-30T02:07:42;23.97;;;13.53;;
35518;SDS011;21627;48.216;16.482;2024-01-30T02:10:10;34.47;;;14.43;;
35518;SDS011;21627;48.216;16.482;2024-01-30T02:12:38;26.67;;;15.53;;
35518;SDS011;21627;48.216;16.482;2024-01-30T02:15:07;22.97;;;14.03;;
35518;SDS011;21627;48.216;16.482;2024-01-30T02:17:34;28.27;;;14.37;;
35518;SDS011;21627;48.216;16.482;2024-01-30T02:20:02;29.00;;;13.93;;
35518;SDS011;21627;48.216;16.482;2024-01-30T02:22:30;27.50;;;14.40;;
35518;SDS011;21627;48.216;16.482;2024-01-30T02:25:00;25.53;;;14.20;;
35518;SDS011;21627;48.216;16.482;2024-01-30T02:27:27;28.90;;;15.00;;
35518;SDS011;21627;48.216;16.482;2024-01-30T02:29:54;26.53;;;14.00;;
35518;SDS011;21627;48.216;16.482;2024-01-30T02:32:22;31.57;;;14.87;;
35518;SDS011;21627;48.216;16.482;2024-01-30T02:34:49;34.23;;;14.23;;
35518;SDS011;21627;48.216;16.482;2024-01-30T02:37:16;28.67;;;16.13;;
35518;SDS011;21627;48.216;16.482;2024-01-30T02:39:44;30.07;;;14.83;;
35518;SDS011;21627;48.216;16.482;2024-01-30T02:42:11;25.80;;;14.23;;
35518;SDS011;21627;48.216;16.482;2024-01-30T02:44:38;30.93;;;15.80;;
35518;SDS011;21627;48.216;16.482;2024-01-30T02:47:05;26.37;;;14.67;;
35518;SDS011;21627;48.216;16.482;2024-01-30T02:49:33;30.37;;;14.77;;
35518;SDS011;21627;48.216;16.482;2024-01-30T02:52:00;34.07;;;15.97;;
35518;SDS011;21627;48.216;16.482;2024-01-30T02:54:27;33.07;;;14.00;;
35518;SDS011;21627;48.216;16.482;2024-01-30T02:56:54;23.93;;;14.30;;
35518;SDS011;21627;48.216;16.482;2024-01-30T02:59:21;31.43;;;14.83;;
35518;SDS011;21627;48.216;16.482;2024-01-30T03:01:48;29.57;;;14.17;;
35518;SDS011;21627;48.216;16.482;2024-01-30T03:04:15;35.47;;;14.03;;
35518;SDS011;21627;48.216;16.482;2024-01-30T03:06:46;28.50;;;15.30;;
35518;SDS011;21627;48.216;16.482;2024-01-30T03:09:15;30.23;;;15.80;;
35518;SDS011;21627;48.216;16.482;2024-01-30T03:11:45;29.60;;;15.87;;
35518;SDS011;21627;48.216;16.482;2024-01-30T03:14:12;28.57;;;15.43;;
35518;SDS011;21627;48.216;16.482;2024-01-30T03:16:40;32.47;;;14.60;;
35518;SDS011;21627;48.216;16.482;2024-01-30T03:19:07;24.50;;;15.53;;
35518;SDS011;21627;48.216;16.482;2024-01-30T03:21:35;29.57;;;15.93;;
35518;SDS011;21627;48.216;16.482;2024-01-30T03:24:02;28.17;;;14.73;;
35518;SDS011;21627;48.216;16.482;2024-01-30T03:26:30;29.80;;;15.57;;
35518;SDS011;21627;48.216;16.482;2024-01-30T03:28:57;30.83;;;15.13;;
35518;SDS011;21627;48.216;16.482;2024-01-30T03:31:24;29.43;;;17.57;;
35518;SDS011;21627;48.216;16.482;2024-01-30T03:33:52;30.07;;;15.80;;
35518;SDS011;21627;48.216;16.482;2024-01-30T03:36:19;28.80;;;15.13;;
35518;SDS011;21627;48.216;16.482;2024-01-30T03:38:46;33.70;;;17.53;;
35518;SDS011;21627;48.216;16.482;2024-01-30T03:41:13;28.90;;;15.30;;
35518;SDS011;21627;48.216;16.482;2024-01-30T03:43:41;33.60;;;16.10;;
35518;SDS011;21627;48.216;16.482;2024-01-30T03:46:08;30.67;;;16.00;;
35518;SDS011;21627;48.216;16.482;2024-01-30T03:48:35;35.50;;;17.93;;
35518;SDS011;21627;48.216;16.482;2024-01-30T03:51:02;33.73;;;16.57;;
35518;SDS011;21627;48.216;16.482;2024-01-30T03:53:30;32.37;;;17.43;;
35518;SDS011;21627;48.216;16.482;2024-01-30T03:55:57;35.90;;;17.57;;
35518;SDS011;21627;48.216;16.482;2024-01-30T03:58:24;34.23;;;17.50;;
35518;SDS011;21627;48.216;16.482;2024-01-30T04:00:52;43.23;;;17.43;;
35518;SDS011;21627;48.216;16.482;2024-01-30T04:03:19;34.47;;;16.90;;
35518;SDS011;21627;48.216;16.482;2024-01-30T04:05:46;35.50;;;17.27;;
35518;SDS011;21627;48.216;16.482;2024-01-30T04:08:13;36.40;;;17.77;;
35518;SDS011;21627;48.216;16.482;2024-01-30T04:10:40;37.90;;;17.63;;
35518;SDS011;21627;48.216;16.482;2024-01-30T04:13:07;36.60;;;17.80;;
35518;SDS011;21627;48.216;16.482;2024-01-30T04:15:38;34.43;;;17.63;;
35518;SDS011;21627;48.216;16.482;2024-01-30T04:18:06;33.03;;;16.60;;
35518;SDS011;21627;48.216;16.482;2024-01-30T04:20:33;37.17;;;16.57;;
35518;SDS011;21627;48.216;16.482;2024-01-30T04:23:00;36.97;;;17.70;;
35518;SDS011;21627;48.216;16.482;2024-01-30T04:25:27;34.07;;;16.90;;
35518;SDS011;21627;48.216;16.482;2024-01-30T04:27:54;36.83;;;17.10;;
35518;SDS011;21627;48.216;16.482;2024-01-30T04:30:21;39.53;;;17.57;;
35518;SDS011;21627;48.216;16.482;2024-01-30T04:32:49;33.23;;;16.30;;
35518;SDS011;21627;48.216;16.482;2024-01-30T04:35:16;38.93;;;17.20;;
35518;SDS011;21627;48.216;16.482;2024-01-30T04:37:43;33.33;;;18.13;;
35518;SDS011;21627;48.216;16.482;2024-01-30T04:40:10;37.77;;;18.00;;
35518;SDS011;21627;48.216;16.482;2024-01-30T04:42:38;32.33;;;17.20;;
35518;SDS011;21627;48.216;16.482;2024-01-30T04:45:05;28.67;;;16.03;;
35518;SDS011;21627;48.216;16.482;2024-01-30T04:47:33;33.87;;;17.33;;
35518;SDS011;21627;48.216;16.482;2024-01-30T04:50:00;32.17;;;17.93;;
35518;SDS011;21627;48.216;16.482;2024-01-30T04:52:29;33.27;;;15.67;;
35518;SDS011;21627;48.216;16.482;2024-01-30T04:54:56;34.30;;;19.00;;
35518;SDS011;21627;48.216;16.482;2024-01-30T04:57:23;34.33;;;16.80;;
35518;SDS011;21627;48.216;16.482;2024-01-30T04:59:50;32.47;;;16.20;;
35518;SDS011;21627;48.216;16.482;2024-01-30T05:02:17;37.50;;;16.87;;
35518;SDS011;21627;48.216;16.482;2024-01-30T05:04:45;35.23;;;16.07;;
35518;SDS011;21627;48.216;16.482;2024-01-30T05:07:12;37.30;;;18.43;;
35518;SDS011;21627;48.216;16.482;2024-01-30T05:09:39;31.70;;;16.37;;
35518;SDS011;21627;48.216;16.482;2024-01-30T05:12:06;29.50;;;16.97;;
35518;SDS011;21627;48.216;16.482;2024-01-30T05:14:33;28.93;;;16.23;;
35518;SDS011;21627;48.216;16.482;2024-01-30T05:17:01;31.47;;;16.50;;
35518;SDS011;21627;48.216;16.482;2024-01-30T05:19:29;36.27;;;16.50;;
35518;SDS011;21627;48.216;16.482;2024-01-30T05:21:56;35.97;;;17.27;;
35518;SDS011;21627;48.216;16.482;2024-01-30T05:24:24;31.53;;;17.23;;
35518;SDS011;21627;48.216;16.482;2024-01-30T05:26:53;35.60;;;16.43;;
35518;SDS011;21627;48.216;16.482;2024-01-30T05:29:20;33.60;;;17.43;;
35518;SDS011;21627;48.216;16.482;2024-01-30T05:31:47;43.77;;;18.47;;
35518;SDS011;21627;48.216;16.482;2024-01-30T05:34:15;32.93;;;16.20;;
35518;SDS011;21627;48.216;16.482;2024-01-30T05:36:43;28.80;;;15.33;;
35518;SDS011;21627;48.216;16.482;2024-01-30T05:39:10;34.63;;;17.47;;
35518;SDS011;21627;48.216;16.482;2024-01-30T05:41:37;34.37;;;15.63;;
35518;SDS011;21627;48.216;16.482;2024-01-30T05:44:04;34.43;;;16.30;;
35518;SDS011;21627;48.216;16.482;2024-01-30T05:46:31;35.93;;;16.40;;
35518;SDS011;21627;48.216;16.482;2024-01-30T05:49:00;31.17;;;16.80;;
35518;SDS011;21627;48.216;16.482;2024-01-30T05:51:27;30.50;;;16.00;;
35518;SDS011;21627;48.216;16.482;2024-01-30T05:53:54;38.10;;;16.43;;
35518;SDS011;21627;48.216;16.482;2024-01-30T05:56:21;37.13;;;17.10;;
35518;SDS011;21627;48.216;16.482;2024-01-30T05:58:49;35.63;;;17.80;;
35518;SDS011;21627;48.216;16.482;2024-01-30T06:01:16;34.13;;;17.20;;
35518;SDS011;21627;48.216;16.482;2024-01-30T06:03:44;31.97;;;16.73;;
35518;SDS011;21627;48.216;16.482;2024-01-30T06:06:11;39.07;;;17.20;;
35518;SDS011;21627;48.216;16.482;2024-01-30T06:08:38;30.63;;;15.17;;
35518;SDS011;21627;48.216;16.482;2024-01-30T06:11:05;33.87;;;16.40;;
35518;SDS011;21627;48.216;16.482;2024-01-30T06:13:36;34.17;;;16.20;;
35518;SDS011;21627;48.216;16.482;2024-01-30T06:16:03;33.50;;;16.90;;
35518;SDS011;21627;48.216;16.482;2024-01-30T06:18:30;30.40;;;15.90;;
35518;SDS011;21627;48.216;16.482;2024-01-30T06:20:57;34.17;;;16.23;;
35518;SDS011;21627;48.216;16.482;2024-01-30T06:23:24;38.43;;;16.97;;
35518;SDS011;21627;48.216;16.482;2024-01-30T06:25:52;29.93;;;16.17;;
35518;SDS011;21627;48.216;16.482;2024-01-30T06:28:19;31.93;;;15.57;;
35518;SDS011;21627;48.216;16.482;2024-01-30T06:30:46;32.53;;;16.80;;
35518;SDS011;21627;48.216;16.482;2024-01-30T06:33:13;31.10;;;16.13;;
35518;SDS011;21627;48.216;16.482;2024-01-30T06:35:41;35.40;;;16.03;;
35518;SDS011;21627;48.216;16.482;2024-01-30T06:38:10;30.93;;;15.70;;
35518;SDS011;21627;48.216;16.482;2024-01-30T06:40:37;30.73;;;15.70;;
35518;SDS011;21627;48.216;16.482;2024-01-30T06:43:05;30.57;;;15.67;;
35518;SDS011;21627;48.216;16.482;2024-01-30T06:45:32;35.23;;;17.07;;
35518;SDS011;21627;48.216;16.482;2024-01-30T06:47:59;29.70;;;16.50;;
35518;SDS011;21627;48.216;16.482;2024-01-30T06:50:27;31.43;;;16.60;;
35518;SDS011;21627;48.216;16.482;2024-01-30T06:52:54;38.83;;;17.00;;
35518;SDS011;21627;48.216;16.482;2024-01-30T06:55:21;31.53;;;16.13;;
35518;SDS011;21627;48.216;16.482;2024-01-30T06:57:48;33.63;;;16.57;;
35518;SDS011;21627;48.216;16.482;2024-01-30T07:00:17;29.27;;;16.23;;
35518;SDS011;21627;48.216;16.482;2024-01-30T07:02:46;33.60;;;17.13;;
35518;SDS011;21627;48.216;16.482;2024-01-30T07:05:13;36.17;;;17.10;;
35518;SDS011;21627;48.216;16.482;2024-01-30T07:07:41;35.47;;;17.53;;
35518;SDS011;21627;48.216;16.482;2024-01-30T07:10:08;30.30;;;16.07;;
35518;SDS011;21627;48.216;16.482;2024-01-30T07:12:35;37.17;;;16.43;;
35518;SDS011;21627;48.216;16.482;2024-01-30T07:15:03;33.70;;;16.23;;
35518;SDS011;21627;48.216;16.482;2024-01-30T07:17:34;39.87;;;16.97;;
35518;SDS011;21627;48.216;16.482;2024-01-30T07:20:02;33.47;;;17.30;;
35518;SDS011;21627;48.216;16.482;2024-01-30T07:22:30;34.97;;;16.57;;
35518;SDS011;21627;48.216;16.482;2024-01-30T07:24:57;34.83;;;16.40;;
35518;SDS011;21627;48.216;16.482;2024-01-30T07:27:24;29.50;;;15.70;;
35518;SDS011;21627;48.216;16.482;2024-01-30T07:29:51;29.73;;;15.93;;
35518;SDS011;21627;48.216;16.482;2024-01-30T07:32:18;26.30;;;16.13;;
35518;SDS011;21627;48.216;16.482;2024-01-30T07:34:46;31.03;;;16.43;;
35518;SDS011;21627;48.216;16.482;2024-01-30T07:37:31;31.60;;;16.80;;
35518;SDS011;21627;48.216;16.482;2024-01-30T07:39:59;28.47;;;14.63;;
35518;SDS011;21627;48.216;16.482;2024-01-30T07:42:28;31.93;;;15.97;;
35518;SDS011;21627;48.216;16.482;2024-01-30T07:44:55;39.83;;;16.03;;
35518;SDS011;21627;48.216;16.482;2024-01-30T07:47:23;28.50;;;15.90;;
35518;SDS011;21627;48.216;16.482;2024-01-30T07:49:50;32.00;;;15.73;;
35518;SDS011;21627;48.216;16.482;2024-01-30T07:52:18;38.57;;;15.47;;
35518;SDS011;21627;48.216;16.482;2024-01-30T07:58:13;33.00;;;15.23;;
35518;SDS011;21627;48.216;16.482;2024-01-30T08:00:40;30.20;;;15.13;;
35518;SDS011;21627;48.216;16.482;2024-01-30T08:03:08;27.93;;;14.70;;
35518;SDS011;21627;48.216;16.482;2024-01-30T08:05:35;33.57;;;14.77;;
35518;SDS011;21627;48.216;16.482;2024-01-30T08:08:02;34.83;;;15.23;;
35518;SDS011;21627;48.216;16.482;2024-01-30T08:10:29;26.10;;;14.57;;
35518;SDS011;21627;48.216;16.482;2024-01-30T08:12:57;35.80;;;16.43;;
35518;SDS011;21627;48.216;16.482;2024-01-30T08:15:24;35.07;;;15.97;;
35518;SDS011;21627;48.216;16.482;2024-01-30T08:17:51;27.77;;;14.93;;
35518;SDS011;21627;48.216;16.482;2024-01-30T08:20:24;27.47;;;14.80;;
35518;SDS011;21627;48.216;16.482;2024-01-30T08:22:52;26.00;;;13.97;;
35518;SDS011;21627;48.216;16.482;2024-01-30T08:25:19;28.83;;;14.83;;
35518;SDS011;21627;48.216;16.482;2024-01-30T08:27:46;30.60;;;16.00;;
35518;SDS011;21627;48.216;16.482;2024-01-30T08:30:14;33.23;;;15.53;;
35518;SDS011;21627;48.216;16.482;2024-01-30T08:32:41;36.90;;;15.07;;
35518;SDS011;21627;48.216;16.482;2024-01-30T08:35:08;32.80;;;17.13;;
35518;SDS011;21627;48.216;16.482;2024-01-30T08:37:35;29.40;;;15.03;;
35518;SDS011;21627;48.216;16.482;2024-01-30T08:40:06;32.60;;;15.07;;
35518;SDS011;21627;48.216;16.482;2024-01-30T08:42:35;27.07;;;14.47;;
35518;SDS011;21627;48.216;16.482;2024-01-30T08:45:02;30.20;;;15.43;;
35518;SDS011;21627;48.216;16.482;2024-01-30T08:47:31;30.10;;;16.20;;
35518;SDS011;21627;48.216;16.482;2024-01-30T08:49:59;25.47;;;14.83;;
35518;SDS011;21627;48.216;16.482;2024-01-30T08:52:27;27.87;;;14.60;;
35518;SDS011;21627;48.216;16.482;2024-01-30T08:54:54;26.80;;;14.77;;
35518;SDS011;21627;48.216;16.482;2024-01-30T08:57:21;29.13;;;13.93;;
35518;SDS011;21627;48.216;16.482;2024-01-30T08:59:48;25.20;;;13.27;;
35518;SDS011;21627;48.216;16.482;2024-01-30T09:02:15;26.43;;;14.00;;
35518;SDS011;21627;48.216;16.482;2024-01-30T09:04:44;28.20;;;14.40;;
35518;SDS011;21627;48.216;16.482;2024-01-30T09:07:12;28.23;;;14.67;;
35518;SDS011;21627;48.216;16.482;2024-01-30T09:09:40;29.10;;;13.93;;
35518;SDS011;21627;48.216;16.482;2024-01-30T09:12:08;27.10;;;14.10;;
35518;SDS011;21627;48.216;16.482;2024-01-30T09:14:38;30.10;;;13.33;;
35518;SDS011;21627;48.216;16.482;2024-01-30T09:17:07;24.23;;;13.27;;
35518;SDS011;21627;48.216;16.482;2024-01-30T09:19:35;28.07;;;14.20;;
35518;SDS011;21627;48.216;16.482;2024-01-30T09:22:02;25.60;;;12.97;;
35518;SDS011;21627;48.216;16.482;2024-01-30T09:24:30;28.53;;;14.03;;
35518;SDS011;21627;48.216;16.482;2024-01-30T09:26:57;29.57;;;13.57;;
35518;SDS011;21627;48.216;16.482;2024-01-30T09:29:24;24.23;;;13.67;;
35518;SDS011;21627;48.216;16.482;2024-01-30T09:31:52;28.27;;;13.70;;
35518;SDS011;21627;48.216;16.482;2024-01-30T09:34:19;25.20;;;13.23;;
35518;SDS011;21627;48.216;16.482;2024-01-30T09:36:47;31.47;;;13.33;;
35518;SDS011;21627;48.216;16.482;2024-01-30T09:39:14;29.13;;;14.87;;
35518;SDS011;21627;48.216;16.482;2024-01-30T09:41:49;24.70;;;12.47;;
35518;SDS011;21627;48.216;16.482;2024-01-30T09:44:24;22.67;;;13.43;;
35518;SDS011;21627;48.216;16.482;2024-01-30T09:46:55;24.90;;;12.00;;
35518;SDS011;21627;48.216;16.482;2024-01-30T09:49:22;25.00;;;13.23;;
35518;SDS011;21627;48.216;16.482;2024-01-30T09:51:51;29.13;;;13.30;;
35518;SDS011;21627;48.216;16.482;2024-01-30T09:54:19;34.80;;;13.77;;
35518;SDS011;21627;48.216;16.482;2024-01-30T09:56:47;26.70;;;12.43;;
35518;SDS011;21627;48.216;16.482;2024-01-30T09:59:14;30.67;;;14.02;;
35518;SDS011;21627;48.216;16.482;2024-01-30T10:01:42;25.20;;;13.27;;
35518;SDS011;21627;48.216;16.482;2024-01-30T10:04:10;25.70;;;13.30;;
35518;SDS011;21627;48.216;16.482;2024-01-30T10:06:37;22.55;;;13.50;;
35518;SDS011;21627;48.216;16.482;2024-01-30T10:09:04;24.40;;;13.48;;
35518;SDS011;21627;48.216;16.482;2024-01-30T10:11:31;24.10;;;12.88;;
35518;SDS011;21627;48.216;16.482;2024-01-30T10:13:59;41.97;;;13.52;;
35518;SDS011;21627;48.216;16.482;2024-01-30T10:16:27;27.77;;;13.33;;
35518;SDS011;21627;48.216;16.482;2024-01-30T10:18:55;23.90;;;13.18;;
35518;SDS011;21627;48.216;16.482;2024-01-30T10:21:22;23.05;;;12.85;;
35518;SDS011;21627;48.216;16.482;2024-01-30T10:23:49;25.90;;;14.17;;
35518;SDS011;21627;48.216;16.482;2024-01-30T10:26:16;23.17;;;12.10;;
35518;SDS011;21627;48.216;16.482;2024-01-30T10:28:44;24.73;;;12.98;;
35518;SDS011;21627;48.216;16.482;2024-01-30T10:31:15;26.23;;;12.43;;
35518;SDS011;21627;48.216;16.482;2024-01-30T10:33:44;24.90;;;13.45;;
35518;SDS011;21627;48.216;16.482;2024-01-30T10:36:14;27.15;;;12.75;;
35518;SDS011;21627;48.216;16.482;2024-01-30T10:38:46;29.67;;;13.52;;
35518;SDS011;21627;48.216;16.482;2024-01-30T10:41:18;24.25;;;13.55;;
35518;SDS011;21627;48.216;16.482;2024-01-30T10:43:55;24.52;;;13.55;;
35518;SDS011;21627;48.216;16.482;2024-01-30T10:46:35;27.70;;;14.05;;
35518;SDS011;21627;48.216;16.482;2024-01-30T10:49:08;27.40;;;12.77;;
35518;SDS011;21627;48.216;16.482;2024-01-30T10:51:36;23.45;;;11.68;;
35518;SDS011;21627;48.216;16.482;2024-01-30T10:54:05;27.70;;;13.10;;
35518;SDS011;21627;48.216;16.482;2024-01-30T10:56:33;24.88;;;12.07;;
35518;SDS011;21627;48.216;16.482;2024-01-30T10:59:01;24.02;;;12.60;;
35518;SDS011;21627;48.216;16.482;2024-01-30T11:01:30;24.30;;;13.23;;
35518;SDS011;21627;48.216;16.482;2024-01-30T11:03:57;24.25;;;12.50;;
35518;SDS011;21627;48.216;16.482;2024-01-30T11:06:25;19.63;;;12.13;;
35518;SDS011;21627;48.216;16.482;2024-01-30T11:09:02;21.35;;;11.40;;
35518;SDS011;21627;48.216;16.482;2024-01-30T11:14:31;24.52;;;13.63;;
35518;SDS011;21627;48.216;16.482;2024-01-30T11:16:59;21.98;;;11.50;;
35518;SDS011;21627;48.216;16.482;2024-01-30T11:19:26;21.90;;;11.57;;
35518;SDS011;21627;48.216;16.482;2024-01-30T11:21:58;18.67;;;10.73;;
35518;SDS011;21627;48.216;16.482;2024-01-30T11:24:27;30.08;;;11.18;;
35518;SDS011;21627;48.216;16.482;2024-01-30T11:27:00;25.98;;;11.02;;
35518;SDS011;21627;48.216;16.482;2024-01-30T11:29:29;22.38;;;10.98;;
35518;SDS011;21627;48.216;16.482;2024-01-30T11:31:57;23.02;;;10.93;;
35518;SDS011;21627;48.216;16.482;2024-01-30T11:34:25;18.42;;;11.32;;
35518;SDS011;21627;48.216;16.482;2024-01-30T11:36:55;20.85;;;11.15;;
35518;SDS011;21627;48.216;16.482;2024-01-30T11:39:25;20.25;;;11.15;;
35518;SDS011;21627;48.216;16.482;2024-01-30T11:41:53;20.55;;;11.30;;
35518;SDS011;21627;48.216;16.482;2024-01-30T11:44:21;26.25;;;11.25;;
35518;SDS011;21627;48.216;16.482;2024-01-30T11:46:50;20.70;;;11.77;;
35518;SDS011;21627;48.216;16.482;2024-01-30T11:49:18;20.25;;;11.48;;
35518;SDS011;21627;48.216;16.482;2024-01-30T11:51:46;26.95;;;10.70;;
35518;SDS011;21627;48.216;16.482;2024-01-30T11:54:16;27.00;;;10.80;;
35518;SDS011;21627;48.216;16.482;2024-01-30T11:56:44;22.02;;;11.00;;
35518;SDS011;21627;48.216;16.482;2024-01-30T11:59:11;23.65;;;11.43;;
35518;SDS011;21627;48.216;16.482;2024-01-30T12:01:38;21.90;;;11.73;;
35518;SDS011;21627;48.216;16.482;2024-01-30T12:04:05;21.00;;;11.50;;
35518;SDS011;21627;48.216;16.482;2024-01-30T12:06:36;23.10;;;11.57;;
35518;SDS011;21627;48.216;16.482;2024-01-30T12:09:05;20.08;;;11.45;;
35518;SDS011;21627;48.216;16.482;2024-01-30T12:11:48;24.30;;;11.00;;
35518;SDS011;21627;48.216;16.482;2024-01-30T12:14:16;28.33;;;10.38;;
35518;SDS011;21627;48.216;16.482;2024-01-30T12:16:43;22.50;;;11.15;;
35518;SDS011;21627;48.216;16.482;2024-01-30T12:19:24;24.83;;;12.00;;
35518;SDS011;21627;48.216;16.482;2024-01-30T12:21:57;21.10;;;11.05;;
35518;SDS011;21627;48.216;16.482;2024-01-30T12:24:29;20.27;;;10.40;;
35518;SDS011;21627;48.216;16.482;2024-01-30T12:26:59;17.80;;;10.32;;
35518;SDS011;21627;48.216;16.482;2024-01-30T12:29:26;19.80;;;11.07;;
35518;SDS011;21627;48.216;16.482;2024-01-30T12:32:00;21.27;;;10.52;;
35518;SDS011;21627;48.216;16.482;2024-01-30T12:34:27;21.45;;;10.10;;
35518;SDS011;21627;48.216;16.482;2024-01-30T12:36:55;19.73;;;10.23;;
35518;SDS011;21627;48.216;16.482;2024-01-30T12:39:22;16.65;;;9.43;;
35518;SDS011;21627;48.216;16.482;2024-01-30T12:41:49;22.67;;;10.05;;
35518;SDS011;21627;48.216;16.482;2024-01-30T12:44:17;18.75;;;9.85;;
35518;SDS011;21627;48.216;16.482;2024-01-30T12:46:46;18.10;;;9.50;;
35518;SDS011;21627;48.216;16.482;2024-01-30T12:49:14;19.02;;;8.90;;
35518;SDS011;21627;48.216;16.482;2024-01-30T12:51:42;19.20;;;8.45;;
35518;SDS011;21627;48.216;16.482;2024-01-30T12:54:09;18.92;;;9.57;;
35518;SDS011;21627;48.216;16.482;2024-01-30T12:56:39;13.00;;;8.52;;
35518;SDS011;21627;48.216;16.482;2024-01-30T12:59:06;17.27;;;8.48;;
35518;SDS011;21627;48.216;16.482;2024-01-30T13:01:33;15.57;;;8.80;;
35518;SDS011;21627;48.216;16.482;2024-01-30T13:04:00;13.07;;;8.68;;
35518;SDS011;21627;48.216;16.482;2024-01-30T13:06:28;15.02;;;8.77;;
35518;SDS011;21627;48.216;16.482;2024-01-30T13:08:55;17.27;;;8.30;;
35518;SDS011;21627;48.216;16.482;2024-01-30T13:11:22;13.95;;;7.68;;
35518;SDS011;21627;48.216;16.482;2024-01-30T13:13:51;15.82;;;8.52;;
35518;SDS011;21627;48.216;16.482;2024-01-30T13:16:18;20.40;;;8.43;;
35518;SDS011;21627;48.216;16.482;2024-01-30T13:18:45;16.08;;;8.30;;
35518;SDS011;21627;48.216;16.482;2024-01-30T13:21:13;17.52;;;7.93;;
35518;SDS011;21627;48.216;16.482;2024-01-30T13:23:40;16.15;;;7.97;;
35518;SDS011;21627;48.216;16.482;2024-01-30T13:26:07;19.08;;;7.97;;
35518;SDS011;21627;48.216;16.482;2024-01-30T13:28:34;18.52;;;8.23;;
35518;SDS011;21627;48.216;16.482;2024-01-30T13:31:01;17.88;;;7.70;;
35518;SDS011;21627;48.216;16.482;2024-01-30T13:33:29;20.48;;;7.95;;
35518;SDS011;21627;48.216;16.482;2024-01-30T13:35:56;17.73;;;8.13;;
35518;SDS011;21627;48.216;16.482;2024-01-30T13:38:23;16.65;;;7.85;;
35518;SDS011;21627;48.216;16.482;2024-01-30T13:40:50;16.10;;;7.90;;
35518;SDS011;21627;48.216;16.482;2024-01-30T13:43:17;14.65;;;7.03;;
35518;SDS011;21627;48.216;16.482;2024-01-30T13:45:44;17.38;;;8.30;;
35518;SDS011;21627;48.216;16.482;2024-01-30T13:48:12;11.00;;;7.10;;
35518;SDS011;21627;48.216;16.482;2024-01-30T13:50:39;13.65;;;7.50;;
35518;SDS011;21627;48.216;16.482;2024-01-30T13:53:07;16.75;;;8.27;;
35518;SDS011;21627;48.216;16.482;2024-01-30T13:55:34;14.55;;;7.78;;
35518;SDS011;21627;48.216;16.482;2024-01-30T13:58:01;17.65;;;8.20;;
35518;SDS011;21627;48.216;16.482;2024-01-30T14:00:29;14.93;;;7.85;;
35518;SDS011;21627;48.216;16.482;2024-01-30T14:02:56;14.73;;;7.93;;
35518;SDS011;21627;48.216;16.482;2024-01-30T14:05:25;17.48;;;8.02;;
35518;SDS011;21627;48.216;16.482;2024-01-30T14:07:56;15.52;;;7.43;;
35518;SDS011;21627;48.216;16.482;2024-01-30T14:10:26;13.75;;;7.90;;
35518;SDS011;21627;48.216;16.482;2024-01-30T14:12:53;14.48;;;7.72;;
35518;SDS011;21627;48.216;16.482;2024-01-30T14:15:20;15.38;;;7.80;;
35518;SDS011;21627;48.216;16.482;2024-01-30T14:17:55;12.52;;;7.55;;
35518;SDS011;21627;48.216;16.482;2024-01-30T14:20:23;12.88;;;7.60;;
35518;SDS011;21627;48.216;16.482;2024-01-30T14:22:50;15.95;;;8.55;;